sensor_id;sensor_type;location;lat;lon;timestamp;temperature;humidity
18777;DHT22;9517;51.174;4.160;2022-12-18T00:02:27;-2.90;99.90
18777;DHT22;9517;51.174;4.160;2022-12-18T00:04:55;-2.90;99.90
18777;DHT22;9517;51.174;4.160;2022-12-18T00:07:23;-3.00;99.90
18777;DHT22;9517;51.174;4.160;2022-12-18T00:09:50;-2.90;99.90
18777;DHT22;9517;51.174;4.160;2022-12-18T00:12:17;-2.90;99.90
18777;DHT22;9517;51.174;4.160;2022-12-18T00:14:44;-3.00;99.90
18777;DHT22;9517;51.174;4.160;2022-12-18T00:17:11;-3.10;99.90
18777;DHT22;9517;51.174;4.160;2022-12-18T00:19:38;-3.10;99.90
18777;DHT22;9517;51.174;4.160;2022-12-18T00:22:07;-3.10;99.90
18777;DHT22;9517;51.174;4.160;2022-12-18T00:24:34;-3.10;99.90
18777;DHT22;9517;51.174;4.160;2022-12-18T00:27:02;-3.20;99.90
18777;DHT22;9517;51.174;4.160;2022-12-18T00:29:29;-3.10;99.90
18777;DHT22;9517;51.174;4.160;2022-12-18T00:31:56;-3.10;99.90
18777;DHT22;9517;51.174;4.160;2022-12-18T00:34:23;-3.20;99.90
18777;DHT22;9517;51.174;4.160;2022-12-18T00:36:50;-3.10;99.90
18777;DHT22;9517;51.174;4.160;2022-12-18T00:39:18;-3.10;99.90
18777;DHT22;9517;51.174;4.160;2022-12-18T00:41:45;-3.20;99.90
18777;DHT22;9517;51.174;4.160;2022-12-18T00:44:30;-3.20;99.90
18777;DHT22;9517;51.174;4.160;2022-12-18T00:46:57;-3.20;99.90
18777;DHT22;9517;51.174;4.160;2022-12-18T00:49:24;-3.30;99.90
18777;DHT22;9517;51.174;4.160;2022-12-18T00:51:51;-3.30;99.90
18777;DHT22;9517;51.174;4.160;2022-12-18T00:54:20;-3.40;99.90
18777;DHT22;9517;51.174;4.160;2022-12-18T00:56:47;-3.40;99.90
18777;DHT22;9517;51.174;4.160;2022-12-18T00:59:14;-3.30;99.90
18777;DHT22;9517;51.174;4.160;2022-12-18T01:01:41;-3.40;99.90
18777;DHT22;9517;51.174;4.160;2022-12-18T01:04:08;-3.50;99.90
18777;DHT22;9517;51.174;4.160;2022-12-18T01:06:35;-3.50;99.90
18777;DHT22;9517;51.174;4.160;2022-12-18T01:09:03;-3.50;99.90
18777;DHT22;9517;51.174;4.160;2022-12-18T01:11:31;-3.50;99.90
18777;DHT22;9517;51.174;4.160;2022-12-18T01:13:58;-3.40;99.90
18777;DHT22;9517;51.174;4.160;2022-12-18T01:16:26;-3.50;99.90
18777;DHT22;9517;51.174;4.160;2022-12-18T01:18:53;-3.50;99.90
18777;DHT22;9517;51.174;4.160;2022-12-18T01:21:22;-3.50;99.90
18777;DHT22;9517;51.174;4.160;2022-12-18T01:23:51;-3.50;99.90
18777;DHT22;9517;51.174;4.160;2022-12-18T01:26:19;-3.60;99.90
18777;DHT22;9517;51.174;4.160;2022-12-18T01:28:48;-3.60;99.90
18777;DHT22;9517;51.174;4.160;2022-12-18T01:31:18;-3.50;99.90
18777;DHT22;9517;51.174;4.160;2022-12-18T01:33:46;-3.60;99.90
18777;DHT22;9517;51.174;4.160;2022-12-18T01:36:18;-3.60;99.90
18777;DHT22;9517;51.174;4.160;2022-12-18T01:38:46;-3.60;99.90
18777;DHT22;9517;51.174;4.160;2022-12-18T01:41:14;-3.60;99.90
18777;DHT22;9517;51.174;4.160;2022-12-18T01:43:48;-3.60;99.90
18777;DHT22;9517;51.174;4.160;2022-12-18T01:46:17;-3.70;99.90
18777;DHT22;9517;51.174;4.160;2022-12-18T01:48:47;-3.70;99.90
18777;DHT22;9517;51.174;4.160;2022-12-18T01:51:15;-3.70;99.90
18777;DHT22;9517;51.174;4.160;2022-12-18T05:10:09;-4.40;99.90
18777;DHT22;9517;51.174;4.160;2022-12-18T05:12:36;-4.50;99.90
18777;DHT22;9517;51.174;4.160;2022-12-18T05:15:23;-4.40;99.90
18777;DHT22;9517;51.174;4.160;2022-12-18T05:17:51;-4.40;99.90
18777;DHT22;9517;51.174;4.160;2022-12-18T05:20:18;-4.50;99.90
18777;DHT22;9517;51.174;4.160;2022-12-18T05:22:45;-4.50;99.90
18777;DHT22;9517;51.174;4.160;2022-12-18T05:25:14;-4.40;99.90
18777;DHT22;9517;51.174;4.160;2022-12-18T05:27:41;-4.40;99.90
18777;DHT22;9517;51.174;4.160;2022-12-18T05:30:09;-4.40;99.90
18777;DHT22;9517;51.174;4.160;2022-12-18T05:32:37;-4.40;99.90
18777;DHT22;9517;51.174;4.160;2022-12-18T05:35:05;-4.40;99.90
18777;DHT22;9517;51.174;4.160;2022-12-18T05:37:33;-4.40;99.90
18777;DHT22;9517;51.174;4.160;2022-12-18T05:40:00;-4.40;99.90
18777;DHT22;9517;51.174;4.160;2022-12-18T05:42:29;-4.30;99.90
18777;DHT22;9517;51.174;4.160;2022-12-18T05:44:57;-4.30;99.90
18777;DHT22;9517;51.174;4.160;2022-12-18T05:47:24;-4.20;99.90
18777;DHT22;9517;51.174;4.160;2022-12-18T05:49:51;-4.20;99.90
18777;DHT22;9517;51.174;4.160;2022-12-18T05:52:18;-4.30;99.90
18777;DHT22;9517;51.174;4.160;2022-12-18T05:54:45;-4.30;99.90
18777;DHT22;9517;51.174;4.160;2022-12-18T05:57:12;-4.30;99.90
18777;DHT22;9517;51.174;4.160;2022-12-18T05:59:41;-4.40;99.90
18777;DHT22;9517;51.174;4.160;2022-12-18T06:02:08;-4.40;99.90
18777;DHT22;9517;51.174;4.160;2022-12-18T06:04:35;-4.40;99.90
18777;DHT22;9517;51.174;4.160;2022-12-18T06:07:02;-4.40;99.90
18777;DHT22;9517;51.174;4.160;2022-12-18T06:09:29;-4.40;99.90
18777;DHT22;9517;51.174;4.160;2022-12-18T06:11:57;-4.50;99.90
18777;DHT22;9517;51.174;4.160;2022-12-18T06:14:24;-4.50;99.90
18777;DHT22;9517;51.174;4.160;2022-12-18T06:16:53;-4.50;99.90
18777;DHT22;9517;51.174;4.160;2022-12-18T06:19:20;-4.50;99.90
18777;DHT22;9517;51.174;4.160;2022-12-18T06:21:47;-4.50;99.90
18777;DHT22;9517;51.174;4.160;2022-12-18T06:24:15;-4.40;99.90
18777;DHT22;9517;51.174;4.160;2022-12-18T06:26:42;-4.40;99.90
18777;DHT22;9517;51.174;4.160;2022-12-18T06:29:09;-4.50;99.90
18777;DHT22;9517;51.174;4.160;2022-12-18T06:31:36;-4.40;99.90
18777;DHT22;9517;51.174;4.160;2022-12-18T06:34:04;-4.40;99.90
18777;DHT22;9517;51.174;4.160;2022-12-18T06:36:32;-4.40;99.90
18777;DHT22;9517;51.174;4.160;2022-12-18T06:38:59;-4.40;99.90
18777;DHT22;9517;51.174;4.160;2022-12-18T06:41:26;-4.40;99.90
18777;DHT22;9517;51.174;4.160;2022-12-18T06:43:53;-4.40;99.90
18777;DHT22;9517;51.174;4.160;2022-12-18T06:46:20;-4.30;99.90
18777;DHT22;9517;51.174;4.160;2022-12-18T06:48:48;-4.30;99.90
18777;DHT22;9517;51.174;4.160;2022-12-18T06:51:19;-4.30;99.90
18777;DHT22;9517;51.174;4.160;2022-12-18T06:53:46;-4.30;99.90
18777;DHT22;9517;51.174;4.160;2022-12-18T06:56:15;-4.30;99.90
18777;DHT22;9517;51.174;4.160;2022-12-18T06:58:42;-4.30;99.90
18777;DHT22;9517;51.174;4.160;2022-12-18T07:01:10;-4.30;99.90
18777;DHT22;9517;51.174;4.160;2022-12-18T07:03:38;-4.30;99.90
18777;DHT22;9517;51.174;4.160;2022-12-18T07:06:06;-4.20;99.90
18777;DHT22;9517;51.174;4.160;2022-12-18T07:08:34;-4.10;99.90
18777;DHT22;9517;51.174;4.160;2022-12-18T07:11:03;-4.20;99.90
18777;DHT22;9517;51.174;4.160;2022-12-18T07:13:30;-4.30;99.90
18777;DHT22;9517;51.174;4.160;2022-12-18T07:16:06;-4.30;99.90
18777;DHT22;9517;51.174;4.160;2022-12-18T07:18:34;-4.30;99.90
18777;DHT22;9517;51.174;4.160;2022-12-18T07:21:03;-4.40;99.90
18777;DHT22;9517;51.174;4.160;2022-12-18T07:23:33;-4.50;99.90
18777;DHT22;9517;51.174;4.160;2022-12-18T07:26:01;-4.40;99.90
18777;DHT22;9517;51.174;4.160;2022-12-18T07:28:29;-4.40;99.90
18777;DHT22;9517;51.174;4.160;2022-12-18T07:30:56;-4.30;99.90
18777;DHT22;9517;51.174;4.160;2022-12-18T07:33:24;-4.40;99.90
18777;DHT22;9517;51.174;4.160;2022-12-18T07:35:51;-4.30;99.90
18777;DHT22;9517;51.174;4.160;2022-12-18T07:38:18;-4.40;99.90
18777;DHT22;9517;51.174;4.160;2022-12-18T07:40:47;-4.50;99.90
18777;DHT22;9517;51.174;4.160;2022-12-18T07:43:14;-4.40;99.90
18777;DHT22;9517;51.174;4.160;2022-12-18T07:45:42;-4.40;99.90
18777;DHT22;9517;51.174;4.160;2022-12-18T07:48:09;-4.40;99.90
18777;DHT22;9517;51.174;4.160;2022-12-18T07:50:39;-4.50;99.90
18777;DHT22;9517;51.174;4.160;2022-12-18T07:53:06;-4.30;99.90
18777;DHT22;9517;51.174;4.160;2022-12-18T07:55:33;-4.40;99.90
18777;DHT22;9517;51.174;4.160;2022-12-18T07:58:02;-4.40;99.90
18777;DHT22;9517;51.174;4.160;2022-12-18T08:00:30;-4.30;99.90
18777;DHT22;9517;51.174;4.160;2022-12-18T08:02:57;-4.30;99.90
18777;DHT22;9517;51.174;4.160;2022-12-18T08:05:24;-4.30;99.90
18777;DHT22;9517;51.174;4.160;2022-12-18T08:07:51;-4.20;99.90
18777;DHT22;9517;51.174;4.160;2022-12-18T08:10:19;-4.30;99.90
18777;DHT22;9517;51.174;4.160;2022-12-18T08:12:49;-4.30;99.90
18777;DHT22;9517;51.174;4.160;2022-12-18T08:15:17;-4.20;99.90
18777;DHT22;9517;51.174;4.160;2022-12-18T08:17:44;-4.20;99.90
18777;DHT22;9517;51.174;4.160;2022-12-18T08:20:12;-4.00;99.90
18777;DHT22;9517;51.174;4.160;2022-12-18T08:22:40;-3.90;99.90
18777;DHT22;9517;51.174;4.160;2022-12-18T08:25:08;-3.90;99.90
18777;DHT22;9517;51.174;4.160;2022-12-18T08:27:35;-3.80;99.90
18777;DHT22;9517;51.174;4.160;2022-12-18T08:30:04;-3.80;99.90
18777;DHT22;9517;51.174;4.160;2022-12-18T08:32:32;-3.60;99.90
18777;DHT22;9517;51.174;4.160;2022-12-18T08:34:59;-3.60;99.90
18777;DHT22;9517;51.174;4.160;2022-12-18T08:37:30;-3.50;99.90
18777;DHT22;9517;51.174;4.160;2022-12-18T08:39:58;-3.60;99.90
18777;DHT22;9517;51.174;4.160;2022-12-18T08:42:25;-3.50;99.90
18777;DHT22;9517;51.174;4.160;2022-12-18T08:45:10;-3.40;99.90
18777;DHT22;9517;51.174;4.160;2022-12-18T08:47:38;-3.30;99.90
18777;DHT22;9517;51.174;4.160;2022-12-18T08:50:06;-3.10;99.90
18777;DHT22;9517;51.174;4.160;2022-12-18T08:52:33;-3.10;99.90
18777;DHT22;9517;51.174;4.160;2022-12-18T08:55:00;-3.10;99.90
18777;DHT22;9517;51.174;4.160;2022-12-18T08:57:27;-3.00;99.90
18777;DHT22;9517;51.174;4.160;2022-12-18T08:59:54;-2.90;99.90
18777;DHT22;9517;51.174;4.160;2022-12-18T09:02:21;-2.90;99.90
18777;DHT22;9517;51.174;4.160;2022-12-18T09:04:49;-2.70;99.90
18777;DHT22;9517;51.174;4.160;2022-12-18T09:07:16;-2.70;99.90
18777;DHT22;9517;51.174;4.160;2022-12-18T09:09:44;-2.70;99.90
18777;DHT22;9517;51.174;4.160;2022-12-18T09:12:11;-2.60;99.90
18777;DHT22;9517;51.174;4.160;2022-12-18T09:14:38;-2.50;99.90
18777;DHT22;9517;51.174;4.160;2022-12-18T09:17:05;-2.30;99.90
18777;DHT22;9517;51.174;4.160;2022-12-18T09:19:32;-2.30;99.90
18777;DHT22;9517;51.174;4.160;2022-12-18T09:22:00;-2.20;99.90
18777;DHT22;9517;51.174;4.160;2022-12-18T09:24:27;-2.20;99.90
18777;DHT22;9517;51.174;4.160;2022-12-18T09:26:55;-2.20;99.90
18777;DHT22;9517;51.174;4.160;2022-12-18T09:29:22;-2.20;99.90
18777;DHT22;9517;51.174;4.160;2022-12-18T09:31:49;-2.20;99.90
18777;DHT22;9517;51.174;4.160;2022-12-18T09:34:16;-2.00;99.90
18777;DHT22;9517;51.174;4.160;2022-12-18T09:36:43;-2.00;99.90
18777;DHT22;9517;51.174;4.160;2022-12-18T09:39:11;-2.10;99.90
18777;DHT22;9517;51.174;4.160;2022-12-18T09:41:48;-2.00;99.90
18777;DHT22;9517;51.174;4.160;2022-12-18T09:44:23;-1.90;99.90
18777;DHT22;9517;51.174;4.160;2022-12-18T09:46:58;-1.80;99.90
18777;DHT22;9517;51.174;4.160;2022-12-18T09:49:30;-1.70;99.90
18777;DHT22;9517;51.174;4.160;2022-12-18T09:52:02;-1.70;99.90
18777;DHT22;9517;51.174;4.160;2022-12-18T09:54:35;-1.70;99.90
18777;DHT22;9517;51.174;4.160;2022-12-18T09:57:05;-1.60;99.90
18777;DHT22;9517;51.174;4.160;2022-12-18T09:59:36;-1.60;99.90
18777;DHT22;9517;51.174;4.160;2022-12-18T10:02:15;-1.70;99.90
18777;DHT22;9517;51.174;4.160;2022-12-18T10:04:43;-1.60;99.90
18777;DHT22;9517;51.174;4.160;2022-12-18T10:07:16;-1.40;99.90
18777;DHT22;9517;51.174;4.160;2022-12-18T10:09:52;-1.40;99.90
18777;DHT22;9517;51.174;4.160;2022-12-18T10:12:28;-1.40;99.90
18777;DHT22;9517;51.174;4.160;2022-12-18T10:15:04;-1.30;99.90
18777;DHT22;9517;51.174;4.160;2022-12-18T10:17:40;-1.20;99.90
18777;DHT22;9517;51.174;4.160;2022-12-18T10:20:13;-1.30;99.90
18777;DHT22;9517;51.174;4.160;2022-12-18T10:22:51;-1.10;99.90
18777;DHT22;9517;51.174;4.160;2022-12-18T10:25:25;-1.10;99.90
18777;DHT22;9517;51.174;4.160;2022-12-18T10:27:56;-1.00;99.90
18777;DHT22;9517;51.174;4.160;2022-12-18T10:30:25;-1.10;99.90
18777;DHT22;9517;51.174;4.160;2022-12-18T10:32:52;-1.00;99.90
18777;DHT22;9517;51.174;4.160;2022-12-18T10:35:22;-0.90;99.90
18777;DHT22;9517;51.174;4.160;2022-12-18T10:38:05;-0.70;99.90
18777;DHT22;9517;51.174;4.160;2022-12-18T10:40:48;-0.70;99.90
18777;DHT22;9517;51.174;4.160;2022-12-18T10:43:20;-0.40;99.90
18777;DHT22;9517;51.174;4.160;2022-12-18T10:45:59;-0.40;99.90
18777;DHT22;9517;51.174;4.160;2022-12-18T10:48:27;-0.30;99.90
18777;DHT22;9517;51.174;4.160;2022-12-18T10:50:54;-0.30;99.90
18777;DHT22;9517;51.174;4.160;2022-12-18T10:53:23;-0.30;99.90
18777;DHT22;9517;51.174;4.160;2022-12-18T10:55:54;-0.40;99.90
18777;DHT22;9517;51.174;4.160;2022-12-18T10:58:24;-0.30;99.90
18777;DHT22;9517;51.174;4.160;2022-12-18T11:01:07;-0.10;99.90
18777;DHT22;9517;51.174;4.160;2022-12-18T11:03:35;0.10;99.90
18777;DHT22;9517;51.174;4.160;2022-12-18T11:06:05;0.10;99.90
18777;DHT22;9517;51.174;4.160;2022-12-18T11:08:33;0.00;99.90
18777;DHT22;9517;51.174;4.160;2022-12-18T11:11:02;0.00;99.90
18777;DHT22;9517;51.174;4.160;2022-12-18T11:13:30;-0.10;99.90
18777;DHT22;9517;51.174;4.160;2022-12-18T11:15:58;0.00;99.90
18777;DHT22;9517;51.174;4.160;2022-12-18T11:18:29;0.10;99.90
18777;DHT22;9517;51.174;4.160;2022-12-18T11:20:58;0.10;99.90
18777;DHT22;9517;51.174;4.160;2022-12-18T11:23:26;0.20;99.90
18777;DHT22;9517;51.174;4.160;2022-12-18T11:25:56;0.40;99.90
18777;DHT22;9517;51.174;4.160;2022-12-18T11:28:47;0.40;99.90
18777;DHT22;9517;51.174;4.160;2022-12-18T11:31:24;0.10;99.90
18777;DHT22;9517;51.174;4.160;2022-12-18T11:33:58;0.10;99.90
18777;DHT22;9517;51.174;4.160;2022-12-18T11:36:30;-0.10;99.90
18777;DHT22;9517;51.174;4.160;2022-12-18T11:39:02;0.00;99.90
18777;DHT22;9517;51.174;4.160;2022-12-18T11:41:37;-0.10;99.90
18777;DHT22;9517;51.174;4.160;2022-12-18T11:44:27;0.10;99.90
18777;DHT22;9517;51.174;4.160;2022-12-18T11:47:00;0.00;99.90
18777;DHT22;9517;51.174;4.160;2022-12-18T11:49:33;0.10;99.90
18777;DHT22;9517;51.174;4.160;2022-12-18T11:52:04;0.00;99.90
18777;DHT22;9517;51.174;4.160;2022-12-18T11:54:36;0.30;99.90
18777;DHT22;9517;51.174;4.160;2022-12-18T11:57:08;0.40;99.90
18777;DHT22;9517;51.174;4.160;2022-12-18T11:59:45;0.40;99.90
18777;DHT22;9517;51.174;4.160;2022-12-18T12:02:29;0.60;99.90
18777;DHT22;9517;51.174;4.160;2022-12-18T12:05:27;0.60;99.90
18777;DHT22;9517;51.174;4.160;2022-12-18T12:08:01;0.80;99.90
18777;DHT22;9517;51.174;4.160;2022-12-18T12:10:42;0.70;99.90
18777;DHT22;9517;51.174;4.160;2022-12-18T12:13:23;0.80;99.90
18777;DHT22;9517;51.174;4.160;2022-12-18T12:16:02;0.70;99.90
18777;DHT22;9517;51.174;4.160;2022-12-18T12:18:38;0.60;99.90
18777;DHT22;9517;51.174;4.160;2022-12-18T12:21:13;0.70;99.90
18777;DHT22;9517;51.174;4.160;2022-12-18T12:27:10;0.50;99.90
18777;DHT22;9517;51.174;4.160;2022-12-18T12:29:49;0.60;99.90
18777;DHT22;9517;51.174;4.160;2022-12-18T12:32:38;0.50;99.90
18777;DHT22;9517;51.174;4.160;2022-12-18T12:35:20;0.60;99.90
18777;DHT22;9517;51.174;4.160;2022-12-18T12:37:58;0.60;99.90
18777;DHT22;9517;51.174;4.160;2022-12-18T12:40:35;0.60;99.90
18777;DHT22;9517;51.174;4.160;2022-12-18T12:43:07;0.60;99.90
18777;DHT22;9517;51.174;4.160;2022-12-18T12:45:42;1.10;99.90
18777;DHT22;9517;51.174;4.160;2022-12-18T12:48:17;1.00;99.90
18777;DHT22;9517;51.174;4.160;2022-12-18T12:50:45;1.10;99.90
18777;DHT22;9517;51.174;4.160;2022-12-18T12:53:21;1.10;99.90
18777;DHT22;9517;51.174;4.160;2022-12-18T12:55:50;0.90;99.90
18777;DHT22;9517;51.174;4.160;2022-12-18T12:58:26;0.80;99.90
18777;DHT22;9517;51.174;4.160;2022-12-18T13:01:10;1.00;99.90
18777;DHT22;9517;51.174;4.160;2022-12-18T13:03:51;0.80;99.90
18777;DHT22;9517;51.174;4.160;2022-12-18T13:06:27;0.90;99.90
18777;DHT22;9517;51.174;4.160;2022-12-18T13:08:57;0.80;99.90
18777;DHT22;9517;51.174;4.160;2022-12-18T13:11:34;0.90;99.90
18777;DHT22;9517;51.174;4.160;2022-12-18T13:14:22;1.00;99.90
18777;DHT22;9517;51.174;4.160;2022-12-18T13:16:49;1.20;99.90
18777;DHT22;9517;51.174;4.160;2022-12-18T13:19:24;1.00;99.90
18777;DHT22;9517;51.174;4.160;2022-12-18T13:21:54;0.90;99.90
18777;DHT22;9517;51.174;4.160;2022-12-18T13:24:25;0.70;99.90
18777;DHT22;9517;51.174;4.160;2022-12-18T13:26:53;0.80;99.90
18777;DHT22;9517;51.174;4.160;2022-12-18T13:29:43;0.90;99.90
18777;DHT22;9517;51.174;4.160;2022-12-18T13:32:21;1.00;99.90
18777;DHT22;9517;51.174;4.160;2022-12-18T13:37:55;1.00;99.90
18777;DHT22;9517;51.174;4.160;2022-12-18T13:40:53;0.80;99.90
18777;DHT22;9517;51.174;4.160;2022-12-18T13:43:36;0.70;99.90
18777;DHT22;9517;51.174;4.160;2022-12-18T13:46:19;0.70;99.90
18777;DHT22;9517;51.174;4.160;2022-12-18T13:48:56;1.00;99.90
18777;DHT22;9517;51.174;4.160;2022-12-18T13:51:26;1.10;99.90
18777;DHT22;9517;51.174;4.160;2022-12-18T13:53:55;1.10;99.90
18777;DHT22;9517;51.174;4.160;2022-12-18T13:56:26;1.00;99.90
18777;DHT22;9517;51.174;4.160;2022-12-18T13:59:14;1.00;99.90
18777;DHT22;9517;51.174;4.160;2022-12-18T14:01:46;1.00;99.90
18777;DHT22;9517;51.174;4.160;2022-12-18T14:04:20;1.20;99.90
18777;DHT22;9517;51.174;4.160;2022-12-18T14:06:51;1.20;99.90
18777;DHT22;9517;51.174;4.160;2022-12-18T14:09:23;1.10;99.90
18777;DHT22;9517;51.174;4.160;2022-12-18T14:11:51;1.30;99.90
18777;DHT22;9517;51.174;4.160;2022-12-18T14:14:42;1.40;99.90
18777;DHT22;9517;51.174;4.160;2022-12-18T14:17:11;1.10;99.90
18777;DHT22;9517;51.174;4.160;2022-12-18T14:19:42;1.00;99.90
18777;DHT22;9517;51.174;4.160;2022-12-18T14:22:16;1.00;99.90
18777;DHT22;9517;51.174;4.160;2022-12-18T14:24:43;1.00;99.90
18777;DHT22;9517;51.174;4.160;2022-12-18T14:27:22;1.00;99.90
18777;DHT22;9517;51.174;4.160;2022-12-18T14:29:50;1.00;99.90
18777;DHT22;9517;51.174;4.160;2022-12-18T14:32:19;1.00;99.90
18777;DHT22;9517;51.174;4.160;2022-12-18T14:34:48;0.90;99.90
18777;DHT22;9517;51.174;4.160;2022-12-18T14:37:20;1.10;99.90
18777;DHT22;9517;51.174;4.160;2022-12-18T14:39:56;1.00;99.90
18777;DHT22;9517;51.174;4.160;2022-12-18T14:42:24;1.00;99.90
18777;DHT22;9517;51.174;4.160;2022-12-18T14:47:55;0.90;99.90
18777;DHT22;9517;51.174;4.160;2022-12-18T14:50:22;0.90;99.90
18777;DHT22;9517;51.174;4.160;2022-12-18T14:52:51;0.80;99.90
18777;DHT22;9517;51.174;4.160;2022-12-18T14:55:20;0.90;99.90
18777;DHT22;9517;51.174;4.160;2022-12-18T14:57:50;0.80;99.90
18777;DHT22;9517;51.174;4.160;2022-12-18T15:00:20;0.90;99.90
18777;DHT22;9517;51.174;4.160;2022-12-18T15:02:49;1.00;99.90
18777;DHT22;9517;51.174;4.160;2022-12-18T15:05:19;1.00;99.90
18777;DHT22;9517;51.174;4.160;2022-12-18T15:07:49;1.00;99.90
18777;DHT22;9517;51.174;4.160;2022-12-18T15:10:18;0.90;99.90
18777;DHT22;9517;51.174;4.160;2022-12-18T15:12:47;0.80;99.90
18777;DHT22;9517;51.174;4.160;2022-12-18T15:15:46;0.80;99.90
18777;DHT22;9517;51.174;4.160;2022-12-18T15:18:15;1.00;99.90
18777;DHT22;9517;51.174;4.160;2022-12-18T15:20:44;1.00;99.90
18777;DHT22;9517;51.174;4.160;2022-12-18T15:23:16;1.00;99.90
18777;DHT22;9517;51.174;4.160;2022-12-18T15:25:45;0.90;99.90
18777;DHT22;9517;51.174;4.160;2022-12-18T15:28:21;0.80;99.90
18777;DHT22;9517;51.174;4.160;2022-12-18T15:31:00;0.80;99.90
18777;DHT22;9517;51.174;4.160;2022-12-18T15:33:30;0.80;99.90
18777;DHT22;9517;51.174;4.160;2022-12-18T15:35:59;0.90;99.90
18777;DHT22;9517;51.174;4.160;2022-12-18T15:38:27;1.00;99.90
18777;DHT22;9517;51.174;4.160;2022-12-18T15:40:55;1.00;99.90
18777;DHT22;9517;51.174;4.160;2022-12-18T15:43:23;1.10;99.90
18777;DHT22;9517;51.174;4.160;2022-12-18T15:46:05;1.10;99.90
18777;DHT22;9517;51.174;4.160;2022-12-18T15:48:33;1.10;99.90
18777;DHT22;9517;51.174;4.160;2022-12-18T15:51:01;1.10;99.90
18777;DHT22;9517;51.174;4.160;2022-12-18T15:53:31;1.20;99.90
18777;DHT22;9517;51.174;4.160;2022-12-18T15:56:00;1.20;99.90
18777;DHT22;9517;51.174;4.160;2022-12-18T15:58:44;1.10;99.90
18777;DHT22;9517;51.174;4.160;2022-12-18T16:01:11;1.10;99.90
18777;DHT22;9517;51.174;4.160;2022-12-18T16:03:39;1.20;99.90
18777;DHT22;9517;51.174;4.160;2022-12-18T16:06:06;1.30;99.90
18777;DHT22;9517;51.174;4.160;2022-12-18T16:08:33;1.20;99.90
18777;DHT22;9517;51.174;4.160;2022-12-18T16:11:02;1.20;99.90
18777;DHT22;9517;51.174;4.160;2022-12-18T16:13:29;1.10;99.90
18777;DHT22;9517;51.174;4.160;2022-12-18T16:15:56;1.30;99.90
18777;DHT22;9517;51.174;4.160;2022-12-18T16:18:23;1.30;99.90
18777;DHT22;9517;51.174;4.160;2022-12-18T16:20:50;1.50;99.90
18777;DHT22;9517;51.174;4.160;2022-12-18T16:23:17;1.50;99.90
18777;DHT22;9517;51.174;4.160;2022-12-18T16:25:44;1.50;99.90
18777;DHT22;9517;51.174;4.160;2022-12-18T16:28:12;1.50;99.90
18777;DHT22;9517;51.174;4.160;2022-12-18T16:30:39;1.40;99.90
18777;DHT22;9517;51.174;4.160;2022-12-18T16:33:07;1.30;99.90
18777;DHT22;9517;51.174;4.160;2022-12-18T16:35:34;1.40;99.90
18777;DHT22;9517;51.174;4.160;2022-12-18T16:38:02;1.50;99.90
18777;DHT22;9517;51.174;4.160;2022-12-18T16:40:31;1.50;99.90
18777;DHT22;9517;51.174;4.160;2022-12-18T16:42:58;1.40;99.90
18777;DHT22;9517;51.174;4.160;2022-12-18T16:45:28;1.60;99.90
18777;DHT22;9517;51.174;4.160;2022-12-18T16:47:58;1.50;99.90
18777;DHT22;9517;51.174;4.160;2022-12-18T16:50:25;1.40;99.90
18777;DHT22;9517;51.174;4.160;2022-12-18T16:52:52;1.50;99.90
18777;DHT22;9517;51.174;4.160;2022-12-18T16:55:19;1.50;99.90
18777;DHT22;9517;51.174;4.160;2022-12-18T16:57:46;1.50;99.90
18777;DHT22;9517;51.174;4.160;2022-12-18T17:00:14;1.50;99.90
18777;DHT22;9517;51.174;4.160;2022-12-18T17:02:44;1.50;99.90
18777;DHT22;9517;51.174;4.160;2022-12-18T17:05:11;1.60;99.90
18777;DHT22;9517;51.174;4.160;2022-12-18T17:07:38;1.60;99.90
18777;DHT22;9517;51.174;4.160;2022-12-18T17:10:06;1.60;99.90
18777;DHT22;9517;51.174;4.160;2022-12-18T17:12:33;1.60;99.90
18777;DHT22;9517;51.174;4.160;2022-12-18T17:15:01;1.60;99.90
18777;DHT22;9517;51.174;4.160;2022-12-18T17:17:28;1.50;99.90
18777;DHT22;9517;51.174;4.160;2022-12-18T17:19:56;1.60;99.90
18777;DHT22;9517;51.174;4.160;2022-12-18T17:22:23;1.50;99.90
18777;DHT22;9517;51.174;4.160;2022-12-18T17:24:50;1.50;99.90
18777;DHT22;9517;51.174;4.160;2022-12-18T17:27:17;1.50;99.90
18777;DHT22;9517;51.174;4.160;2022-12-18T17:29:44;1.30;99.90
18777;DHT22;9517;51.174;4.160;2022-12-18T17:32:11;1.30;99.90
18777;DHT22;9517;51.174;4.160;2022-12-18T17:34:38;1.30;99.90
18777;DHT22;9517;51.174;4.160;2022-12-18T17:37:07;1.40;99.90
18777;DHT22;9517;51.174;4.160;2022-12-18T17:39:34;1.40;99.90
18777;DHT22;9517;51.174;4.160;2022-12-18T17:42:01;1.40;99.90
18777;DHT22;9517;51.174;4.160;2022-12-18T17:44:28;1.20;99.90
18777;DHT22;9517;51.174;4.160;2022-12-18T17:46:55;1.20;99.90
18777;DHT22;9517;51.174;4.160;2022-12-18T17:49:23;1.20;99.90
18777;DHT22;9517;51.174;4.160;2022-12-18T17:51:50;1.20;99.90
18777;DHT22;9517;51.174;4.160;2022-12-18T17:54:18;1.30;99.90
18777;DHT22;9517;51.174;4.160;2022-12-18T17:56:46;1.30;99.90
18777;DHT22;9517;51.174;4.160;2022-12-18T17:59:13;1.30;99.90
18777;DHT22;9517;51.174;4.160;2022-12-18T18:01:40;1.30;99.90
18777;DHT22;9517;51.174;4.160;2022-12-18T18:04:07;1.30;99.90
18777;DHT22;9517;51.174;4.160;2022-12-18T18:06:34;1.30;99.90
18777;DHT22;9517;51.174;4.160;2022-12-18T18:09:01;1.40;99.90
18777;DHT22;9517;51.174;4.160;2022-12-18T18:11:29;1.30;99.90
18777;DHT22;9517;51.174;4.160;2022-12-18T18:14:15;1.30;99.90
18777;DHT22;9517;51.174;4.160;2022-12-18T18:16:44;1.20;99.90
18777;DHT22;9517;51.174;4.160;2022-12-18T18:19:13;1.30;99.90
18777;DHT22;9517;51.174;4.160;2022-12-18T18:21:45;1.30;99.90
18777;DHT22;9517;51.174;4.160;2022-12-18T18:24:15;1.40;99.90
18777;DHT22;9517;51.174;4.160;2022-12-18T18:26:44;1.40;99.90
18777;DHT22;9517;51.174;4.160;2022-12-18T18:29:14;1.30;99.90
18777;DHT22;9517;51.174;4.160;2022-12-18T18:31:41;1.30;99.90
18777;DHT22;9517;51.174;4.160;2022-12-18T18:34:13;1.30;99.90
18777;DHT22;9517;51.174;4.160;2022-12-18T18:36:40;1.20;99.90
18777;DHT22;9517;51.174;4.160;2022-12-18T18:39:08;1.30;99.90
18777;DHT22;9517;51.174;4.160;2022-12-18T18:41:35;1.40;99.90
18777;DHT22;9517;51.174;4.160;2022-12-18T18:44:04;1.40;99.90
18777;DHT22;9517;51.174;4.160;2022-12-18T18:46:31;1.40;99.90
18777;DHT22;9517;51.174;4.160;2022-12-18T18:48:59;1.30;99.90
18777;DHT22;9517;51.174;4.160;2022-12-18T18:51:26;1.30;99.90
18777;DHT22;9517;51.174;4.160;2022-12-18T18:53:53;1.40;99.90
18777;DHT22;9517;51.174;4.160;2022-12-18T18:56:22;1.50;99.90
18777;DHT22;9517;51.174;4.160;2022-12-18T18:58:53;1.30;99.90
18777;DHT22;9517;51.174;4.160;2022-12-18T19:01:25;1.40;99.90
18777;DHT22;9517;51.174;4.160;2022-12-18T19:03:53;1.30;99.90
18777;DHT22;9517;51.174;4.160;2022-12-18T19:06:21;1.40;99.90
18777;DHT22;9517;51.174;4.160;2022-12-18T19:08:50;1.40;99.90
18777;DHT22;9517;51.174;4.160;2022-12-18T19:11:20;1.40;99.90
18777;DHT22;9517;51.174;4.160;2022-12-18T19:14:11;1.20;99.90
18777;DHT22;9517;51.174;4.160;2022-12-18T19:16:42;1.30;99.90
18777;DHT22;9517;51.174;4.160;2022-12-18T19:19:10;1.30;99.90
18777;DHT22;9517;51.174;4.160;2022-12-18T19:21:38;1.40;99.90
18777;DHT22;9517;51.174;4.160;2022-12-18T19:24:05;1.50;99.90
18777;DHT22;9517;51.174;4.160;2022-12-18T19:26:33;1.50;99.90
18777;DHT22;9517;51.174;4.160;2022-12-18T19:29:01;1.40;99.90
18777;DHT22;9517;51.174;4.160;2022-12-18T19:31:29;1.60;99.90
18777;DHT22;9517;51.174;4.160;2022-12-18T19:33:58;1.80;99.90
18777;DHT22;9517;51.174;4.160;2022-12-18T19:36:28;1.70;99.90
18777;DHT22;9517;51.174;4.160;2022-12-18T19:38:58;1.60;99.90
18777;DHT22;9517;51.174;4.160;2022-12-18T19:41:29;1.50;99.90